sensor_id;sensor_type;location;lat;lon;timestamp;pressure;altitude;pressure_sealevel;temperature;humidity
70971;BME280;58632;51.718;19.446;2024-01-15T00:00:17;97479.39;;;0.50;100.00
70971;BME280;58632;51.718;19.446;2024-01-15T00:03:03;97477.02;;;0.51;100.00
70971;BME280;58632;51.718;19.446;2024-01-15T00:05:28;97471.15;;;0.50;100.00
70971;BME280;58632;51.718;19.446;2024-01-15T00:07:54;97470.77;;;0.49;100.00
70971;BME280;58632;51.718;19.446;2024-01-15T00:10:19;97465.03;;;0.49;100.00
70971;BME280;58632;51.718;19.446;2024-01-15T00:12:44;97453.88;;;0.49;100.00
70971;BME280;58632;51.718;19.446;2024-01-15T00:15:10;97449.09;;;0.49;100.00
70971;BME280;58632;51.718;19.446;2024-01-15T00:17:35;97442.70;;;0.47;100.00
70971;BME280;58632;51.718;19.446;2024-01-15T00:20:00;97439.83;;;0.43;100.00
70971;BME280;58632;51.718;19.446;2024-01-15T00:22:26;97434.35;;;0.45;100.00
70971;BME280;58632;51.718;19.446;2024-01-15T00:24:54;97439.77;;;0.47;100.00
70971;BME280;58632;51.718;19.446;2024-01-15T00:27:20;97436.38;;;0.49;100.00
70971;BME280;58632;51.718;19.446;2024-01-15T00:29:45;97434.77;;;0.47;100.00
70971;BME280;58632;51.718;19.446;2024-01-15T00:32:11;97427.52;;;0.47;100.00
70971;BME280;58632;51.718;19.446;2024-01-15T00:34:36;97421.99;;;0.44;100.00
70971;BME280;58632;51.718;19.446;2024-01-15T00:37:01;97416.95;;;0.43;100.00
70971;BME280;58632;51.718;19.446;2024-01-15T00:39:28;97414.14;;;0.43;100.00
70971;BME280;58632;51.718;19.446;2024-01-15T00:41:53;97409.73;;;0.45;100.00
70971;BME280;58632;51.718;19.446;2024-01-15T00:44:18;97408.31;;;0.46;100.00
70971;BME280;58632;51.718;19.446;2024-01-15T00:46:44;97407.93;;;0.44;100.00
70971;BME280;58632;51.718;19.446;2024-01-15T00:49:11;97405.90;;;0.44;100.00
70971;BME280;58632;51.718;19.446;2024-01-15T00:51:36;97398.71;;;0.45;100.00
70971;BME280;58632;51.718;19.446;2024-01-15T00:54:02;97395.71;;;0.46;100.00
70971;BME280;58632;51.718;19.446;2024-01-15T00:56:27;97382.70;;;0.47;100.00
70971;BME280;58632;51.718;19.446;2024-01-15T00:58:53;97375.20;;;0.45;100.00
70971;BME280;58632;51.718;19.446;2024-01-15T01:01:18;97373.88;;;0.45;100.00
70971;BME280;58632;51.718;19.446;2024-01-15T01:03:44;97374.36;;;0.47;100.00
70971;BME280;58632;51.718;19.446;2024-01-15T01:06:09;97369.35;;;0.45;100.00
70971;BME280;58632;51.718;19.446;2024-01-15T01:08:34;97370.42;;;0.47;100.00
70971;BME280;58632;51.718;19.446;2024-01-15T01:11:00;97367.39;;;0.46;100.00
70971;BME280;58632;51.718;19.446;2024-01-15T01:13:25;97366.47;;;0.46;100.00
70971;BME280;58632;51.718;19.446;2024-01-15T01:15:51;97369.89;;;0.47;100.00
70971;BME280;58632;51.718;19.446;2024-01-15T01:18:16;97367.13;;;0.45;100.00
70971;BME280;58632;51.718;19.446;2024-01-15T01:20:42;97366.91;;;0.44;100.00
70971;BME280;58632;51.718;19.446;2024-01-15T01:23:07;97358.10;;;0.43;100.00
70971;BME280;58632;51.718;19.446;2024-01-15T01:25:33;97351.03;;;0.47;100.00
70971;BME280;58632;51.718;19.446;2024-01-15T01:27:58;97349.36;;;0.47;100.00
70971;BME280;58632;51.718;19.446;2024-01-15T01:30:24;97346.60;;;0.47;100.00
70971;BME280;58632;51.718;19.446;2024-01-15T01:32:49;97344.67;;;0.45;100.00
70971;BME280;58632;51.718;19.446;2024-01-15T01:35:14;97345.61;;;0.42;100.00
70971;BME280;58632;51.718;19.446;2024-01-15T01:37:40;97338.80;;;0.39;100.00
70971;BME280;58632;51.718;19.446;2024-01-15T01:40:05;97334.48;;;0.39;100.00
70971;BME280;58632;51.718;19.446;2024-01-15T01:42:31;97330.23;;;0.39;100.00
70971;BME280;58632;51.718;19.446;2024-01-15T01:44:56;97323.75;;;0.40;100.00
70971;BME280;58632;51.718;19.446;2024-01-15T01:47:22;97323.91;;;0.44;100.00
70971;BME280;58632;51.718;19.446;2024-01-15T01:49:47;97322.38;;;0.46;100.00
70971;BME280;58632;51.718;19.446;2024-01-15T01:52:13;97315.31;;;0.48;100.00
70971;BME280;58632;51.718;19.446;2024-01-15T01:54:41;97309.26;;;0.48;100.00
70971;BME280;58632;51.718;19.446;2024-01-15T01:57:07;97310.94;;;0.48;100.00
70971;BME280;58632;51.718;19.446;2024-01-15T01:59:32;97309.90;;;0.50;100.00
70971;BME280;58632;51.718;19.446;2024-01-15T02:01:59;97307.98;;;0.51;100.00
70971;BME280;58632;51.718;19.446;2024-01-15T02:04:26;97302.64;;;0.52;100.00
70971;BME280;58632;51.718;19.446;2024-01-15T02:06:51;97295.50;;;0.50;100.00
70971;BME280;58632;51.718;19.446;2024-01-15T02:09:17;97294.84;;;0.46;100.00
70971;BME280;58632;51.718;19.446;2024-01-15T02:11:43;97290.78;;;0.41;100.00
70971;BME280;58632;51.718;19.446;2024-01-15T02:14:08;97284.08;;;0.38;100.00
70971;BME280;58632;51.718;19.446;2024-01-15T02:16:34;97278.46;;;0.37;100.00
70971;BME280;58632;51.718;19.446;2024-01-15T02:18:59;97279.27;;;0.33;100.00
70971;BME280;58632;51.718;19.446;2024-01-15T02:21:25;97276.85;;;0.30;100.00
70971;BME280;58632;51.718;19.446;2024-01-15T02:23:53;97267.72;;;0.27;100.00
70971;BME280;58632;51.718;19.446;2024-01-15T02:26:19;97268.17;;;0.29;100.00
70971;BME280;58632;51.718;19.446;2024-01-15T02:28:44;97269.36;;;0.30;100.00
70971;BME280;58632;51.718;19.446;2024-01-15T02:31:10;97275.11;;;0.28;100.00
70971;BME280;58632;51.718;19.446;2024-01-15T02:33:35;97272.31;;;0.27;100.00
70971;BME280;58632;51.718;19.446;2024-01-15T02:36:00;97272.41;;;0.27;100.00
70971;BME280;58632;51.718;19.446;2024-01-15T02:38:26;97267.40;;;0.29;100.00
70971;BME280;58632;51.718;19.446;2024-01-15T02:40:51;97262.40;;;0.29;100.00
70971;BME280;58632;51.718;19.446;2024-01-15T02:43:17;97255.38;;;0.30;100.00
70971;BME280;58632;51.718;19.446;2024-01-15T02:45:45;97254.23;;;0.30;100.00
70971;BME280;58632;51.718;19.446;2024-01-15T02:48:11;97245.40;;;0.32;100.00
70971;BME280;58632;51.718;19.446;2024-01-15T02:50:37;97247.11;;;0.31;100.00
70971;BME280;58632;51.718;19.446;2024-01-15T02:53:02;97239.69;;;0.28;100.00
70971;BME280;58632;51.718;19.446;2024-01-15T02:55:27;97243.05;;;0.28;100.00
70971;BME280;58632;51.718;19.446;2024-01-15T02:57:54;97240.63;;;0.27;100.00
70971;BME280;58632;51.718;19.446;2024-01-15T03:00:20;97239.44;;;0.28;100.00
70971;BME280;58632;51.718;19.446;2024-01-15T03:02:45;97229.69;;;0.32;100.00
70971;BME280;58632;51.718;19.446;2024-01-15T03:05:11;97223.92;;;0.35;100.00
70971;BME280;58632;51.718;19.446;2024-01-15T03:07:39;97214.65;;;0.38;100.00
70971;BME280;58632;51.718;19.446;2024-01-15T03:10:05;97214.30;;;0.35;100.00
70971;BME280;58632;51.718;19.446;2024-01-15T03:12:31;97216.33;;;0.30;100.00
70971;BME280;58632;51.718;19.446;2024-01-15T03:14:57;97216.16;;;0.30;100.00
70971;BME280;58632;51.718;19.446;2024-01-15T03:17:22;97214.20;;;0.28;100.00
70971;BME280;58632;51.718;19.446;2024-01-15T03:19:47;97205.90;;;0.30;100.00
70971;BME280;58632;51.718;19.446;2024-01-15T03:22:15;97201.31;;;0.28;100.00
70971;BME280;58632;51.718;19.446;2024-01-15T03:24:41;97197.80;;;0.26;100.00
70971;BME280;58632;51.718;19.446;2024-01-15T03:27:06;97196.41;;;0.25;100.00
70971;BME280;58632;51.718;19.446;2024-01-15T03:29:32;97196.41;;;0.23;100.00
70971;BME280;58632;51.718;19.446;2024-01-15T03:31:58;97200.73;;;0.20;100.00
70971;BME280;58632;51.718;19.446;2024-01-15T03:34:23;97195.91;;;0.19;100.00
70971;BME280;58632;51.718;19.446;2024-01-15T03:36:48;97197.80;;;0.18;100.00
70971;BME280;58632;51.718;19.446;2024-01-15T03:39:14;97201.79;;;0.18;100.00
70971;BME280;58632;51.718;19.446;2024-01-15T03:41:41;97203.02;;;0.16;100.00
70971;BME280;58632;51.718;19.446;2024-01-15T03:44:07;97195.62;;;0.16;100.00
70971;BME280;58632;51.718;19.446;2024-01-15T03:46:32;97190.40;;;0.16;100.00
70971;BME280;58632;51.718;19.446;2024-01-15T03:48:57;97181.34;;;0.18;100.00
70971;BME280;58632;51.718;19.446;2024-01-15T03:51:23;97171.08;;;0.19;100.00
70971;BME280;58632;51.718;19.446;2024-01-15T03:53:48;97173.88;;;0.16;100.00
70971;BME280;58632;51.718;19.446;2024-01-15T03:56:14;97168.27;;;0.13;100.00
70971;BME280;58632;51.718;19.446;2024-01-15T03:58:39;97169.66;;;0.08;100.00
70971;BME280;58632;51.718;19.446;2024-01-15T04:01:11;97169.21;;;0.08;100.00
70971;BME280;58632;51.718;19.446;2024-01-15T04:03:37;97166.14;;;0.08;100.00
70971;BME280;58632;51.718;19.446;2024-01-15T04:06:03;97160.58;;;0.08;100.00
70971;BME280;58632;51.718;19.446;2024-01-15T04:08:28;97159.09;;;0.07;100.00
70971;BME280;58632;51.718;19.446;2024-01-15T04:10:54;97155.14;;;0.06;100.00
70971;BME280;58632;51.718;19.446;2024-01-15T04:13:20;97153.54;;;0.04;100.00
70971;BME280;58632;51.718;19.446;2024-01-15T04:15:48;97147.60;;;0.01;100.00
70971;BME280;58632;51.718;19.446;2024-01-15T04:18:16;97150.98;;;-0.01;100.00
70971;BME280;58632;51.718;19.446;2024-01-15T04:20:42;97155.70;;;-0.02;100.00
70971;BME280;58632;51.718;19.446;2024-01-15T04:23:08;97155.02;;;-0.04;100.00
70971;BME280;58632;51.718;19.446;2024-01-15T04:25:33;97157.83;;;-0.06;100.00
70971;BME280;58632;51.718;19.446;2024-01-15T04:27:59;97153.10;;;-0.05;100.00
70971;BME280;58632;51.718;19.446;2024-01-15T04:30:24;97155.33;;;0.00;100.00
70971;BME280;58632;51.718;19.446;2024-01-15T04:32:49;97146.77;;;-0.00;100.00
70971;BME280;58632;51.718;19.446;2024-01-15T04:35:15;97143.70;;;-0.02;100.00
70971;BME280;58632;51.718;19.446;2024-01-15T04:37:40;97135.85;;;-0.04;100.00
70971;BME280;58632;51.718;19.446;2024-01-15T04:40:06;97132.84;;;0.01;100.00
70971;BME280;58632;51.718;19.446;2024-01-15T04:42:32;97129.05;;;0.07;100.00
70971;BME280;58632;51.718;19.446;2024-01-15T04:44:57;97132.37;;;0.08;100.00
70971;BME280;58632;51.718;19.446;2024-01-15T04:47:23;97128.73;;;0.04;100.00
70971;BME280;58632;51.718;19.446;2024-01-15T04:49:48;97133.92;;;0.03;100.00
70971;BME280;58632;51.718;19.446;2024-01-15T04:52:14;97128.35;;;0.02;100.00
70971;BME280;58632;51.718;19.446;2024-01-15T04:54:39;97120.05;;;0.04;100.00
70971;BME280;58632;51.718;19.446;2024-01-15T04:57:05;97119.52;;;0.06;100.00
70971;BME280;58632;51.718;19.446;2024-01-15T04:59:31;97122.72;;;0.03;100.00
70971;BME280;58632;51.718;19.446;2024-01-15T05:01:56;97123.66;;;0.02;100.00
70971;BME280;58632;51.718;19.446;2024-01-15T05:04:21;97123.02;;;0.01;100.00
70971;BME280;58632;51.718;19.446;2024-01-15T05:06:47;97124.58;;;0.04;100.00
70971;BME280;58632;51.718;19.446;2024-01-15T05:09:12;97121.26;;;0.09;100.00
70971;BME280;58632;51.718;19.446;2024-01-15T05:11:40;97119.93;;;0.10;100.00
70971;BME280;58632;51.718;19.446;2024-01-15T05:14:06;97118.48;;;0.08;100.00
70971;BME280;58632;51.718;19.446;2024-01-15T05:16:31;97116.09;;;0.07;100.00
70971;BME280;58632;51.718;19.446;2024-01-15T05:18:57;97117.75;;;0.06;100.00
70971;BME280;58632;51.718;19.446;2024-01-15T05:21:25;97119.63;;;0.11;100.00
70971;BME280;58632;51.718;19.446;2024-01-15T05:23:50;97112.77;;;0.15;100.00
70971;BME280;58632;51.718;19.446;2024-01-15T05:26:16;97110.95;;;0.19;100.00
70971;BME280;58632;51.718;19.446;2024-01-15T05:28:42;97106.23;;;0.20;100.00
70971;BME280;58632;51.718;19.446;2024-01-15T05:31:10;97103.98;;;0.22;100.00
70971;BME280;58632;51.718;19.446;2024-01-15T05:33:36;97098.55;;;0.18;100.00
70971;BME280;58632;51.718;19.446;2024-01-15T05:36:02;97092.52;;;0.20;100.00
70971;BME280;58632;51.718;19.446;2024-01-15T05:38:27;97089.91;;;0.24;100.00
70971;BME280;58632;51.718;19.446;2024-01-15T05:40:53;97089.58;;;0.21;100.00
70971;BME280;58632;51.718;19.446;2024-01-15T05:43:18;97089.88;;;0.19;100.00
70971;BME280;58632;51.718;19.446;2024-01-15T05:45:44;97086.26;;;0.17;100.00
70971;BME280;58632;51.718;19.446;2024-01-15T05:48:10;97084.13;;;0.16;100.00
70971;BME280;58632;51.718;19.446;2024-01-15T05:50:35;97084.68;;;0.15;100.00
70971;BME280;58632;51.718;19.446;2024-01-15T05:53:00;97081.54;;;0.18;100.00
70971;BME280;58632;51.718;19.446;2024-01-15T05:55:26;97079.98;;;0.18;100.00
70971;BME280;58632;51.718;19.446;2024-01-15T05:57:51;97083.63;;;0.17;100.00
70971;BME280;58632;51.718;19.446;2024-01-15T06:00:17;97079.23;;;0.16;100.00
70971;BME280;58632;51.718;19.446;2024-01-15T06:02:45;97075.75;;;0.14;100.00
70971;BME280;58632;51.718;19.446;2024-01-15T06:05:13;97071.81;;;0.16;100.00
70971;BME280;58632;51.718;19.446;2024-01-15T06:07:39;97066.51;;;0.17;100.00
70971;BME280;58632;51.718;19.446;2024-01-15T06:10:09;97065.77;;;0.17;100.00
70971;BME280;58632;51.718;19.446;2024-01-15T06:12:35;97068.50;;;0.16;100.00
70971;BME280;58632;51.718;19.446;2024-01-15T06:15:00;97071.02;;;0.13;100.00
70971;BME280;58632;51.718;19.446;2024-01-15T06:17:26;97071.08;;;0.09;100.00
70971;BME280;58632;51.718;19.446;2024-01-15T06:19:53;97065.60;;;0.06;100.00
70971;BME280;58632;51.718;19.446;2024-01-15T06:22:19;97065.23;;;0.04;100.00
70971;BME280;58632;51.718;19.446;2024-01-15T06:24:44;97062.98;;;-0.00;100.00
70971;BME280;58632;51.718;19.446;2024-01-15T06:27:10;97064.02;;;-0.03;100.00
70971;BME280;58632;51.718;19.446;2024-01-15T06:29:37;97063.25;;;-0.08;100.00
70971;BME280;58632;51.718;19.446;2024-01-15T06:32:03;97058.30;;;-0.13;100.00
70971;BME280;58632;51.718;19.446;2024-01-15T06:34:33;97055.70;;;-0.16;100.00
70971;BME280;58632;51.718;19.446;2024-01-15T06:36:58;97055.80;;;-0.14;100.00
70971;BME280;58632;51.718;19.446;2024-01-15T06:39:24;97066.17;;;-0.15;100.00
70971;BME280;58632;51.718;19.446;2024-01-15T06:41:49;97064.54;;;-0.20;100.00
70971;BME280;58632;51.718;19.446;2024-01-15T06:44:14;97062.40;;;-0.19;100.00
70971;BME280;58632;51.718;19.446;2024-01-15T06:46:44;97068.34;;;-0.21;100.00
70971;BME280;58632;51.718;19.446;2024-01-15T06:49:10;97073.27;;;-0.19;100.00
70971;BME280;58632;51.718;19.446;2024-01-15T06:51:35;97071.33;;;-0.17;100.00
70971;BME280;58632;51.718;19.446;2024-01-15T06:54:01;97075.16;;;-0.14;100.00
70971;BME280;58632;51.718;19.446;2024-01-15T06:56:27;97075.23;;;-0.14;100.00
70971;BME280;58632;51.718;19.446;2024-01-15T06:58:52;97074.56;;;-0.12;100.00
70971;BME280;58632;51.718;19.446;2024-01-15T07:01:17;97080.01;;;-0.12;100.00
70971;BME280;58632;51.718;19.446;2024-01-15T07:03:43;97080.79;;;-0.15;100.00
70971;BME280;58632;51.718;19.446;2024-01-15T07:06:08;97081.49;;;-0.13;100.00
70971;BME280;58632;51.718;19.446;2024-01-15T07:08:34;97085.59;;;-0.14;100.00
70971;BME280;58632;51.718;19.446;2024-01-15T07:10:59;97092.46;;;-0.15;100.00
70971;BME280;58632;51.718;19.446;2024-01-15T07:13:24;97102.40;;;-0.15;100.00
70971;BME280;58632;51.718;19.446;2024-01-15T07:15:50;97102.50;;;-0.13;100.00
70971;BME280;58632;51.718;19.446;2024-01-15T07:18:15;97102.48;;;-0.12;100.00
70971;BME280;58632;51.718;19.446;2024-01-15T07:20:43;97108.80;;;-0.11;100.00
70971;BME280;58632;51.718;19.446;2024-01-15T07:23:10;97105.91;;;-0.08;100.00
70971;BME280;58632;51.718;19.446;2024-01-15T07:25:36;97110.73;;;-0.06;100.00
70971;BME280;58632;51.718;19.446;2024-01-15T07:28:02;97116.35;;;-0.02;100.00
70971;BME280;58632;51.718;19.446;2024-01-15T07:30:29;97122.99;;;0.01;100.00
70971;BME280;58632;51.718;19.446;2024-01-15T07:32:54;97122.91;;;0.01;100.00
70971;BME280;58632;51.718;19.446;2024-01-15T07:35:20;97128.82;;;-0.01;100.00
70971;BME280;58632;51.718;19.446;2024-01-15T07:37:46;97134.66;;;0.00;100.00
70971;BME280;58632;51.718;19.446;2024-01-15T07:40:11;97144.34;;;0.02;100.00
70971;BME280;58632;51.718;19.446;2024-01-15T07:42:37;97142.27;;;0.06;100.00
70971;BME280;58632;51.718;19.446;2024-01-15T07:45:03;97138.83;;;0.08;100.00
70971;BME280;58632;51.718;19.446;2024-01-15T07:47:29;97137.05;;;0.10;100.00
70971;BME280;58632;51.718;19.446;2024-01-15T07:49:55;97132.80;;;0.14;100.00
70971;BME280;58632;51.718;19.446;2024-01-15T07:52:21;97141.56;;;0.21;100.00
70971;BME280;58632;51.718;19.446;2024-01-15T07:54:46;97134.88;;;0.30;100.00
70971;BME280;58632;51.718;19.446;2024-01-15T07:57:12;97140.17;;;0.43;100.00
70971;BME280;58632;51.718;19.446;2024-01-15T07:59:37;97146.14;;;0.55;100.00
70971;BME280;58632;51.718;19.446;2024-01-15T08:02:03;97143.12;;;0.58;100.00
70971;BME280;58632;51.718;19.446;2024-01-15T08:04:28;97144.17;;;0.63;100.00
70971;BME280;58632;51.718;19.446;2024-01-15T08:06:54;97146.25;;;0.69;100.00
70971;BME280;58632;51.718;19.446;2024-01-15T08:09:22;97139.31;;;0.79;100.00
70971;BME280;58632;51.718;19.446;2024-01-15T08:11:47;97138.18;;;0.94;100.00
70971;BME280;58632;51.718;19.446;2024-01-15T08:14:14;97131.19;;;1.07;100.00
70971;BME280;58632;51.718;19.446;2024-01-15T08:16:39;97132.35;;;1.13;100.00
70971;BME280;58632;51.718;19.446;2024-01-15T08:19:05;97131.69;;;1.14;100.00
70971;BME280;58632;51.718;19.446;2024-01-15T08:21:33;97137.93;;;1.16;100.00
70971;BME280;58632;51.718;19.446;2024-01-15T08:24:00;97142.52;;;1.19;100.00
70971;BME280;58632;51.718;19.446;2024-01-15T08:26:26;97149.90;;;1.25;100.00
70971;BME280;58632;51.718;19.446;2024-01-15T08:28:51;97151.20;;;1.35;100.00
70971;BME280;58632;51.718;19.446;2024-01-15T08:31:16;97153.95;;;1.50;100.00
70971;BME280;58632;51.718;19.446;2024-01-15T08:33:42;97153.58;;;1.66;100.00
70971;BME280;58632;51.718;19.446;2024-01-15T08:36:09;97154.30;;;1.71;100.00
70971;BME280;58632;51.718;19.446;2024-01-15T08:38:35;97157.35;;;1.70;100.00
70971;BME280;58632;51.718;19.446;2024-01-15T08:41:03;97161.31;;;1.71;100.00
70971;BME280;58632;51.718;19.446;2024-01-15T08:43:28;97154.81;;;1.75;100.00
70971;BME280;58632;51.718;19.446;2024-01-15T08:45:55;97152.45;;;1.80;100.00
70971;BME280;58632;51.718;19.446;2024-01-15T08:48:20;97150.83;;;1.85;100.00
70971;BME280;58632;51.718;19.446;2024-01-15T08:50:48;97142.42;;;1.85;100.00
70971;BME280;58632;51.718;19.446;2024-01-15T08:53:13;97138.88;;;1.83;100.00
70971;BME280;58632;51.718;19.446;2024-01-15T08:55:39;97135.66;;;1.86;100.00
70971;BME280;58632;51.718;19.446;2024-01-15T08:58:04;97133.84;;;1.89;100.00
70971;BME280;58632;51.718;19.446;2024-01-15T09:00:31;97133.30;;;1.89;100.00
70971;BME280;58632;51.718;19.446;2024-01-15T09:02:57;97130.84;;;1.96;100.00
70971;BME280;58632;51.718;19.446;2024-01-15T09:05:23;97130.92;;;1.98;100.00
70971;BME280;58632;51.718;19.446;2024-01-15T09:07:48;97130.32;;;1.94;100.00
70971;BME280;58632;51.718;19.446;2024-01-15T09:10:14;97126.56;;;1.90;100.00
70971;BME280;58632;51.718;19.446;2024-01-15T09:12:39;97129.67;;;1.85;100.00
70971;BME280;58632;51.718;19.446;2024-01-15T09:15:07;97127.58;;;1.83;100.00
70971;BME280;58632;51.718;19.446;2024-01-15T09:17:33;97124.77;;;1.77;100.00
70971;BME280;58632;51.718;19.446;2024-01-15T09:19:59;97127.38;;;1.73;100.00
70971;BME280;58632;51.718;19.446;2024-01-15T09:22:24;97132.64;;;1.73;100.00
70971;BME280;58632;51.718;19.446;2024-01-15T09:24:50;97129.38;;;1.68;100.00
70971;BME280;58632;51.718;19.446;2024-01-15T09:27:18;97128.39;;;1.58;100.00
70971;BME280;58632;51.718;19.446;2024-01-15T09:29:44;97125.25;;;1.49;100.00
70971;BME280;58632;51.718;19.446;2024-01-15T09:32:11;97120.58;;;1.50;100.00
70971;BME280;58632;51.718;19.446;2024-01-15T09:34:37;97124.08;;;1.48;100.00
70971;BME280;58632;51.718;19.446;2024-01-15T09:37:02;97128.98;;;1.41;100.00
70971;BME280;58632;51.718;19.446;2024-01-15T09:39:29;97121.86;;;1.43;100.00
70971;BME280;58632;51.718;19.446;2024-01-15T09:41:54;97118.92;;;1.44;100.00
70971;BME280;58632;51.718;19.446;2024-01-15T09:44:20;97128.16;;;1.48;100.00
70971;BME280;58632;51.718;19.446;2024-01-15T09:46:46;97120.30;;;1.53;100.00
70971;BME280;58632;51.718;19.446;2024-01-15T09:49:11;97114.97;;;1.58;100.00
70971;BME280;58632;51.718;19.446;2024-01-15T09:51:37;97117.27;;;1.64;100.00
70971;BME280;58632;51.718;19.446;2024-01-15T09:54:04;97115.08;;;1.69;100.00
70971;BME280;58632;51.718;19.446;2024-01-15T09:56:30;97105.73;;;1.77;100.00
70971;BME280;58632;51.718;19.446;2024-01-15T09:58:55;97111.52;;;1.88;100.00
70971;BME280;58632;51.718;19.446;2024-01-15T10:01:22;97113.70;;;1.97;100.00
70971;BME280;58632;51.718;19.446;2024-01-15T10:03:48;97107.58;;;2.02;100.00
70971;BME280;58632;51.718;19.446;2024-01-15T10:06:15;97099.52;;;2.03;100.00
70971;BME280;58632;51.718;19.446;2024-01-15T10:08:42;97100.72;;;2.09;100.00
70971;BME280;58632;51.718;19.446;2024-01-15T10:11:09;97096.77;;;2.14;100.00
70971;BME280;58632;51.718;19.446;2024-01-15T10:13:34;97104.16;;;2.15;100.00
70971;BME280;58632;51.718;19.446;2024-01-15T10:16:00;97106.91;;;2.14;100.00
70971;BME280;58632;51.718;19.446;2024-01-15T10:18:30;97101.09;;;2.11;100.00
70971;BME280;58632;51.718;19.446;2024-01-15T10:20:56;97100.67;;;2.08;100.00
70971;BME280;58632;51.718;19.446;2024-01-15T10:23:23;97101.50;;;2.03;100.00
70971;BME280;58632;51.718;19.446;2024-01-15T10:25:48;97102.63;;;1.96;100.00
70971;BME280;58632;51.718;19.446;2024-01-15T10:28:13;97099.71;;;1.92;100.00
70971;BME280;58632;51.718;19.446;2024-01-15T10:30:39;97097.17;;;1.82;100.00
70971;BME280;58632;51.718;19.446;2024-01-15T10:33:04;97097.90;;;1.70;100.00
70971;BME280;58632;51.718;19.446;2024-01-15T10:35:31;97097.38;;;1.64;100.00
70971;BME280;58632;51.718;19.446;2024-01-15T10:37:57;97092.86;;;1.56;100.00
70971;BME280;58632;51.718;19.446;2024-01-15T10:40:22;97096.41;;;1.53;100.00
70971;BME280;58632;51.718;19.446;2024-01-15T10:42:48;97094.46;;;1.50;100.00
70971;BME280;58632;51.718;19.446;2024-01-15T10:45:13;97082.92;;;1.48;100.00
70971;BME280;58632;51.718;19.446;2024-01-15T10:47:40;97077.40;;;1.49;100.00
70971;BME280;58632;51.718;19.446;2024-01-15T10:50:06;97077.80;;;1.45;100.00
70971;BME280;58632;51.718;19.446;2024-01-15T10:52:33;97076.27;;;1.47;100.00
70971;BME280;58632;51.718;19.446;2024-01-15T10:54:59;97077.89;;;1.47;100.00
70971;BME280;58632;51.718;19.446;2024-01-15T10:57:25;97080.77;;;1.42;100.00
70971;BME280;58632;51.718;19.446;2024-01-15T10:59:51;97085.48;;;1.36;100.00
70971;BME280;58632;51.718;19.446;2024-01-15T11:02:16;97083.54;;;1.32;100.00
70971;BME280;58632;51.718;19.446;2024-01-15T11:04:42;97093.20;;;1.27;100.00
70971;BME280;58632;51.718;19.446;2024-01-15T11:07:07;97085.90;;;1.29;100.00
70971;BME280;58632;51.718;19.446;2024-01-15T11:09:34;97084.42;;;1.33;100.00
70971;BME280;58632;51.718;19.446;2024-01-15T11:12:06;97085.23;;;1.34;100.00
70971;BME280;58632;51.718;19.446;2024-01-15T11:14:44;97088.47;;;1.36;100.00
70971;BME280;58632;51.718;19.446;2024-01-15T11:17:10;97082.23;;;1.38;100.00
70971;BME280;58632;51.718;19.446;2024-01-15T11:19:49;97078.85;;;1.40;100.00
70971;BME280;58632;51.718;19.446;2024-01-15T11:24:55;97080.14;;;1.38;100.00
70971;BME280;58632;51.718;19.446;2024-01-15T11:27:40;97079.82;;;1.33;100.00
70971;BME280;58632;51.718;19.446;2024-01-15T11:30:09;97081.69;;;1.30;100.00
70971;BME280;58632;51.718;19.446;2024-01-15T11:32:35;97075.42;;;1.27;100.00
70971;BME280;58632;51.718;19.446;2024-01-15T11:35:01;97073.91;;;1.25;100.00
70971;BME280;58632;51.718;19.446;2024-01-15T11:37:28;97074.24;;;1.22;100.00
70971;BME280;58632;51.718;19.446;2024-01-15T11:39:54;97070.14;;;1.18;100.00
70971;BME280;58632;51.718;19.446;2024-01-15T11:42:21;97069.13;;;1.14;100.00
70971;BME280;58632;51.718;19.446;2024-01-15T11:44:47;97070.85;;;1.10;100.00
70971;BME280;58632;51.718;19.446;2024-01-15T11:47:12;97068.52;;;1.02;100.00
70971;BME280;58632;51.718;19.446;2024-01-15T11:52:03;97070.59;;;1.13;100.00
70971;BME280;58632;51.718;19.446;2024-01-15T11:54:30;97072.54;;;1.30;100.00
70971;BME280;58632;51.718;19.446;2024-01-15T11:56:59;97070.21;;;1.46;100.00
70971;BME280;58632;51.718;19.446;2024-01-15T11:59:25;97074.89;;;1.56;100.00
70971;BME280;58632;51.718;19.446;2024-01-15T12:01:51;97067.84;;;1.65;100.00
70971;BME280;58632;51.718;19.446;2024-01-15T12:04:16;97063.29;;;1.76;100.00
70971;BME280;58632;51.718;19.446;2024-01-15T12:06:44;97061.06;;;1.87;100.00
70971;BME280;58632;51.718;19.446;2024-01-15T12:09:10;97060.67;;;1.92;100.00
70971;BME280;58632;51.718;19.446;2024-01-15T12:11:37;97058.73;;;1.89;100.00
70971;BME280;58632;51.718;19.446;2024-01-15T12:14:04;97062.94;;;1.81;100.00
70971;BME280;58632;51.718;19.446;2024-01-15T12:16:30;97070.57;;;1.75;100.00
70971;BME280;58632;51.718;19.446;2024-01-15T12:18:55;97070.13;;;1.74;100.00
70971;BME280;58632;51.718;19.446;2024-01-15T12:21:21;97068.58;;;1.73;100.00
70971;BME280;58632;51.718;19.446;2024-01-15T12:23:46;97075.11;;;1.73;100.00
70971;BME280;58632;51.718;19.446;2024-01-15T12:26:13;97071.83;;;1.72;100.00
70971;BME280;58632;51.718;19.446;2024-01-15T12:28:39;97078.30;;;1.66;100.00
70971;BME280;58632;51.718;19.446;2024-01-15T12:31:05;97071.58;;;1.64;100.00
70971;BME280;58632;51.718;19.446;2024-01-15T12:33:30;97075.61;;;1.60;100.00
70971;BME280;58632;51.718;19.446;2024-01-15T12:35:55;97075.71;;;1.57;100.00
70971;BME280;58632;51.718;19.446;2024-01-15T12:38:21;97077.62;;;1.67;100.00
70971;BME280;58632;51.718;19.446;2024-01-15T12:40:49;97079.09;;;1.80;100.00
70971;BME280;58632;51.718;19.446;2024-01-15T12:43:15;97079.91;;;1.88;100.00
70971;BME280;58632;51.718;19.446;2024-01-15T12:45:40;97084.40;;;1.95;100.00